Time;durP1;ratioP1;P1;durP2;ratioP2;P2;SDS_P1;SDS_P2;PMS_P1;PMS_P2;Temp;Humidity;BMP_temperature;BMP_pressure;BME280_temperature;BME280_humidity;BME280_pressure;Samples;Min_cycle;Max_cycle;Signal;HPM_P1;HPM_P2
2024/01/31 00:00:31;;;;;;;28.90;18.00;;;;;;;5.61;90.23;101637.46;181051;1257;44157;-77
2024/01/31 00:04:54;;;;;;;25.20;17.00;;;;;;;5.55;90.64;101640.51;181079;1258;43852;-78
2024/01/31 00:08:57;;;;;;;22.50;17.40;;;;;;;5.46;92.05;101641.88;181224;1257;43904;-78
2024/01/31 00:13:00;;;;;;;28.00;19.20;;;;;;;5.49;92.38;101635.98;181098;1256;59885;-77
2024/01/31 00:17:03;;;;;;;41.80;18.00;;;;;;;5.51;92.75;101629.20;181162;1258;43969;-77
2024/01/31 00:21:06;;;;;;;26.00;17.20;;;;;;;5.56;93.14;101635.89;181150;1257;43803;-78
2024/01/31 00:25:09;;;;;;;25.70;18.40;;;;;;;5.60;93.29;101638.73;181170;1258;44109;-78
2024/01/31 00:29:12;;;;;;;32.00;20.20;;;;;;;5.69;93.19;101635.55;181101;1259;46121;-77
2024/01/31 00:33:15;;;;;;;31.50;21.70;;;;;;;5.82;92.65;101633.95;181126;1259;57971;-77
2024/01/31 00:37:18;;;;;;;26.00;18.30;;;;;;;5.90;92.00;101626.44;181171;1257;44159;-77
2024/01/31 00:41:21;;;;;;;46.60;26.60;;;;;;;5.98;91.85;101621.54;181153;1259;43851;-77
2024/01/31 00:45:24;;;;;;;36.50;18.60;;;;;;;5.98;91.55;101619.95;181166;1260;44103;-77
2024/01/31 00:49:28;;;;;;;25.40;18.70;;;;;;;5.92;91.49;101626.20;181197;1259;45928;-77
2024/01/31 00:53:31;;;;;;;25.60;19.90;;;;;;;5.85;91.58;101628.74;181150;1258;58550;-78
2024/01/31 00:57:34;;;;;;;22.40;16.20;;;;;;;5.84;91.47;101631.11;181193;1257;44045;-78
2024/01/31 01:01:37;;;;;;;24.30;16.90;;;;;;;5.85;91.18;101625.23;181220;1257;43855;-78
2024/01/31 01:05:40;;;;;;;21.80;16.20;;;;;;;5.87;90.82;101627.63;181155;1257;44279;-78
2024/01/31 01:09:43;;;;;;;22.00;15.10;;;;;;;5.85;90.62;101634.56;181119;1257;43997;-78
2024/01/31 01:13:48;;;;;;;23.80;17.30;;;;;;;5.83;91.06;101638.01;181123;1257;59327;-77
2024/01/31 01:17:51;;;;;;;22.40;16.20;;;;;;;5.75;92.23;101639.02;181122;1258;44113;-77
2024/01/31 01:21:56;;;;;;;24.50;17.00;;;;;;;5.69;93.11;101640.14;181250;1257;44058;-78
2024/01/31 01:25:59;;;;;;;26.50;18.50;;;;;;;5.64;93.84;101642.60;181192;1259;44335;-78
2024/01/31 01:30:02;;;;;;;33.20;17.60;;;;;;;5.64;94.07;101645.98;181209;1257;44032;-78
2024/01/31 01:34:05;;;;;;;28.70;16.80;;;;;;;5.64;94.64;101642.79;181186;1257;57761;-78
2024/01/31 01:38:09;;;;;;;26.40;18.30;;;;;;;5.66;94.68;101637.08;181051;1262;44153;-78
2024/01/31 01:42:12;;;;;;;28.80;15.80;;;;;;;5.70;94.31;101629.70;181129;1259;44030;-78
2024/01/31 01:46:20;;;;;;;31.60;19.00;;;;;;;5.71;94.09;101623.84;181213;1257;44319;-78
2024/01/31 01:50:24;;;;;;;23.90;15.00;;;;;;;5.71;94.19;101628.25;181129;1259;44162;-78
2024/01/31 01:54:27;;;;;;;21.50;16.10;;;;;;;5.66;94.51;101633.57;181199;1259;60249;-78
2024/01/31 01:58:32;;;;;;;26.20;15.70;;;;;;;5.62;94.96;101625.27;181190;1258;44085;-78
2024/01/31 02:02:36;;;;;;;23.80;15.40;;;;;;;5.59;95.09;101617.63;181140;1257;44011;-78
2024/01/31 02:06:39;;;;;;;24.00;15.50;;;;;;;5.53;95.88;101618.56;181076;1257;43764;-78
2024/01/31 02:10:43;;;;;;;24.60;17.00;;;;;;;5.48;96.51;101619.98;181102;1257;44186;-78
2024/01/31 02:14:47;;;;;;;31.80;19.50;;;;;;;5.46;97.05;101617.98;181142;1258;60690;-77
2024/01/31 02:18:50;;;;;;;19.10;15.20;;;;;;;5.48;97.15;101617.70;181185;1257;44018;-78
2024/01/31 02:22:55;;;;;;;24.50;17.00;;;;;;;5.52;97.09;101621.09;181177;1258;44217;-78
2024/01/31 02:26:58;;;;;;;22.90;16.90;;;;;;;5.53;97.26;101621.76;181232;1257;44033;-78
2024/01/31 02:31:02;;;;;;;22.30;14.90;;;;;;;5.56;97.06;101621.82;181202;1258;43878;-78
2024/01/31 02:35:05;;;;;;;25.90;15.60;;;;;;;5.61;97.01;101618.79;181170;1258;57776;-77
2024/01/31 02:39:09;;;;;;;23.90;15.70;;;;;;;5.64;97.26;101620.96;181035;1257;44178;-77
2024/01/31 02:43:12;;;;;;;24.30;17.30;;;;;;;5.67;98.09;101618.04;181177;1259;43900;-77
2024/01/31 02:47:15;;;;;;;26.30;16.20;;;;;;;5.70;98.58;101620.75;180998;1257;44157;-77
2024/01/31 02:51:18;;;;;;;26.70;16.00;;;;;;;5.75;99.00;101614.73;181162;1257;44069;-76
2024/01/31 02:55:21;;;;;;;25.80;15.00;;;;;;;5.81;99.12;101609.89;181152;1258;59965;-77
2024/01/31 02:59:24;;;;;;;24.50;16.20;;;;;;;5.88;98.94;101613.52;181068;1258;44253;-77
2024/01/31 03:03:27;;;;;;;22.90;14.80;;;;;;;5.95;98.78;101615.67;181165;1258;44034;-77
2024/01/31 03:07:30;;;;;;;23.60;16.30;;;;;;;5.99;98.85;101624.31;181196;1258;43998;-77
2024/01/31 03:11:33;;;;;;;29.30;19.80;;;;;;;6.03;98.99;101622.27;181075;1260;44203;-77
2024/01/31 03:15:36;;;;;;;29.60;16.80;;;;;;;6.08;98.88;101616.41;181166;1257;58962;-77
2024/01/31 03:19:40;;;;;;;24.90;15.40;;;;;;;6.15;98.82;101615.25;181151;1257;43843;-77
2024/01/31 03:23:43;;;;;;;24.50;17.60;;;;;;;6.23;98.79;101623.19;181190;1257;43984;-77
2024/01/31 03:27:46;;;;;;;24.60;17.30;;;;;;;6.29;98.66;101625.40;181143;1257;140548;-77
2024/01/31 03:31:49;;;;;;;21.30;17.20;;;;;;;6.36;98.29;101628.98;181204;1257;44115;-77
2024/01/31 03:35:52;;;;;;;28.30;15.90;;;;;;;6.39;97.96;101632.36;181178;1257;57944;-77
2024/01/31 03:39:55;;;;;;;21.30;16.90;;;;;;;6.39;97.87;101623.92;181090;1259;44113;-77
2024/01/31 03:43:58;;;;;;;21.40;15.10;;;;;;;6.39;98.26;101624.12;181214;1258;44185;-77
2024/01/31 03:48:01;;;;;;;21.70;17.70;;;;;;;6.38;98.28;101629.23;181029;1257;43872;-77
2024/01/31 03:52:05;;;;;;;22.30;16.80;;;;;;;6.40;98.20;101629.88;181159;1257;44076;-77
2024/01/31 03:56:08;;;;;;;26.00;17.10;;;;;;;6.40;97.97;101630.40;181061;1258;57724;-77
2024/01/31 04:00:12;;;;;;;22.10;15.20;;;;;;;6.41;97.77;101632.30;181091;1257;43827;-78
2024/01/31 04:04:15;;;;;;;24.50;16.80;;;;;;;6.43;97.88;101639.25;181185;1257;44092;-77
2024/01/31 04:08:18;;;;;;;22.80;15.80;;;;;;;6.44;97.96;101642.05;181040;1261;44304;-77
2024/01/31 04:12:21;;;;;;;25.70;14.10;;;;;;;6.43;97.81;101641.90;181177;1257;44128;-77
2024/01/31 04:16:24;;;;;;;23.10;16.70;;;;;;;6.39;97.07;101642.94;181113;1257;57009;-78
2024/01/31 04:20:27;;;;;;;22.40;14.80;;;;;;;6.38;96.82;101650.20;181174;1258;43811;-78
2024/01/31 04:24:30;;;;;;;21.50;17.90;;;;;;;6.37;96.60;101647.44;181061;1258;44163;-82
2024/01/31 04:28:33;;;;;;;28.00;16.20;;;;;;;6.38;96.63;101653.23;181146;1257;43739;-83
2024/01/31 04:32:36;;;;;;;26.50;16.50;;;;;;;6.38;96.74;101656.77;181185;1257;44019;-82
2024/01/31 04:36:39;;;;;;;21.30;16.40;;;;;;;6.35;96.74;101656.52;181114;1260;58690;-83
2024/01/31 04:40:42;;;;;;;24.00;17.50;;;;;;;6.36;96.57;101655.58;181083;1260;44077;-82
2024/01/31 04:44:46;;;;;;;22.30;16.80;;;;;;;6.39;96.26;101653.52;181032;1260;44273;-83
2024/01/31 04:48:49;;;;;;;28.50;18.30;;;;;;;6.39;96.07;101653.16;181039;1262;44112;-82
2024/01/31 04:52:53;;;;;;;32.60;24.80;;;;;;;6.40;95.75;101658.05;181165;1258;43853;-82
2024/01/31 04:56:56;;;;;;;34.90;22.30;;;;;;;6.40;95.50;101662.10;181192;1257;58036;-82
2024/01/31 05:00:59;;;;;;;22.50;18.30;;;;;;;6.44;95.49;101665.14;181176;1257;45649;-83
2024/01/31 05:05:03;;;;;;;36.80;24.50;;;;;;;6.43;95.65;101665.67;181187;1257;44034;-82
2024/01/31 05:09:07;;;;;;;36.30;24.60;;;;;;;6.46;95.72;101662.60;181083;1257;44099;-82
2024/01/31 05:13:12;;;;;;;34.40;25.00;;;;;;;6.50;95.96;101664.73;181193;1257;44091;-82
2024/01/31 05:17:15;;;;;;;29.20;20.60;;;;;;;6.54;96.32;101665.25;181119;1257;58892;-82
2024/01/31 05:21:19;;;;;;;30.50;21.20;;;;;;;6.57;96.65;101667.73;180981;1258;45693;-82
2024/01/31 05:25:22;;;;;;;26.20;18.00;;;;;;;6.59;97.03;101667.84;181142;1257;44163;-82
2024/01/31 05:29:25;;;;;;;26.70;18.30;;;;;;;6.59;97.82;101661.33;181136;1257;44064;-81
2024/01/31 05:33:28;;;;;;;23.10;15.40;;;;;;;6.59;98.51;101663.11;181052;1257;43901;-82
2024/01/31 05:37:31;;;;;;;23.80;17.10;;;;;;;6.59;99.26;101660.79;181115;1257;59515;-81
2024/01/31 05:41:35;;;;;;;29.40;17.50;;;;;;;6.61;99.65;101668.45;181105;1257;44050;-82
2024/01/31 05:45:38;;;;;;;23.40;16.80;;;;;;;6.67;99.80;101672.95;181118;1258;44215;-82
2024/01/31 05:49:41;;;;;;;28.20;18.30;;;;;;;6.70;99.99;101670.20;181105;1257;44187;-82
2024/01/31 05:53:45;;;;;;;23.50;18.10;;;;;;;6.71;100.00;101679.16;181047;1257;44143;-82
2024/01/31 05:57:49;;;;;;;25.90;16.00;;;;;;;6.71;100.00;101678.79;181123;1257;60208;-82
2024/01/31 06:01:52;;;;;;;27.00;17.00;;;;;;;6.68;100.00;101684.20;181007;1257;43800;-82
2024/01/31 06:05:56;;;;;;;22.90;18.00;;;;;;;6.69;100.00;101683.46;181118;1257;44771;-82
2024/01/31 06:09:59;;;;;;;27.80;18.50;;;;;;;6.71;100.00;101683.74;180998;1257;44088;-82
2024/01/31 06:14:03;;;;;;;22.20;16.90;;;;;;;6.72;100.00;101688.27;181013;1257;44145;-82
2024/01/31 06:18:06;;;;;;;27.20;17.20;;;;;;;6.73;100.00;101686.85;181167;1257;59308;-82
2024/01/31 06:22:09;;;;;;;26.50;18.00;;;;;;;6.76;100.00;101692.16;181162;1257;44120;-82
2024/01/31 06:26:13;;;;;;;29.70;17.00;;;;;;;6.79;100.00;101699.25;181209;1257;43990;-82
2024/01/31 06:30:21;;;;;;;27.60;18.80;;;;;;;6.78;100.00;101702.13;181221;1257;43972;-80
2024/01/31 06:34:24;;;;;;;32.70;20.50;;;;;;;6.78;100.00;101706.17;181116;1257;43892;-81
2024/01/31 06:38:27;;;;;;;26.00;18.30;;;;;;;6.80;100.00;101712.46;181049;1257;59432;-82
2024/01/31 06:42:30;;;;;;;25.80;18.80;;;;;;;6.84;100.00;101713.48;181045;1257;44309;-82
2024/01/31 06:46:33;;;;;;;27.90;18.90;;;;;;;6.88;100.00;101714.38;181119;1257;43903;-81
2024/01/31 06:50:37;;;;;;;26.40;19.40;;;;;;;6.97;100.00;101716.30;181130;1257;43999;-82
2024/01/31 06:54:40;;;;;;;33.70;20.00;;;;;;;7.07;100.00;101713.05;181068;1257;44323;-82
2024/01/31 06:58:45;;;;;;;24.20;16.20;;;;;;;7.14;100.00;101710.26;181058;1258;59556;-82
2024/01/31 07:02:48;;;;;;;26.30;17.20;;;;;;;7.24;100.00;101710.55;181167;1257;43983;-82
2024/01/31 07:06:51;;;;;;;34.30;19.90;;;;;;;7.34;100.00;101703.74;181187;1257;44161;-82
2024/01/31 07:10:55;;;;;;;31.30;19.60;;;;;;;7.43;100.00;101704.20;181298;1257;43692;-82
2024/01/31 07:14:58;;;;;;;25.40;19.00;;;;;;;7.55;100.00;101708.94;181253;1257;43761;-82
2024/01/31 07:19:01;;;;;;;23.20;16.40;;;;;;;7.65;100.00;101710.07;181030;1257;58348;-82
2024/01/31 07:23:05;;;;;;;29.10;17.60;;;;;;;7.68;100.00;101718.41;181164;1257;44129;-82
2024/01/31 07:27:08;;;;;;;24.50;15.50;;;;;;;7.65;100.00;101720.34;181186;1257;44023;-81
2024/01/31 07:31:11;;;;;;;25.20;18.50;;;;;;;7.61;100.00;101721.20;181097;1257;43938;-82
2024/01/31 07:35:14;;;;;;;24.60;17.70;;;;;;;7.61;100.00;101723.86;181061;1257;44196;-82
2024/01/31 07:39:17;;;;;;;28.30;18.00;;;;;;;7.74;100.00;101718.48;181080;1257;59534;-82
2024/01/31 07:43:21;;;;;;;23.10;16.70;;;;;;;7.93;100.00;101719.53;181285;1257;43933;-81
2024/01/31 07:47:24;;;;;;;24.90;16.90;;;;;;;8.10;100.00;101722.98;181147;1257;43834;-82
2024/01/31 07:51:27;;;;;;;25.30;16.50;;;;;;;8.20;100.00;101721.08;181144;1257;44020;-82
2024/01/31 07:55:31;;;;;;;25.50;16.00;;;;;;;8.30;100.00;101721.32;181107;1257;44128;-81
2024/01/31 07:59:35;;;;;;;23.40;16.40;;;;;;;8.40;99.77;101727.55;181105;1257;59547;-81
2024/01/31 08:03:41;;;;;;;24.40;13.60;;;;;;;8.42;98.61;101727.97;180991;1257;43950;-82
2024/01/31 08:07:47;;;;;;;22.00;15.10;;;;;;;8.43;97.86;101734.80;181122;1257;43886;-82
2024/01/31 08:11:51;;;;;;;20.60;16.00;;;;;;;8.49;98.47;101739.29;181211;1257;44019;-81
2024/01/31 08:15:54;;;;;;;24.50;15.40;;;;;;;8.57;98.08;101744.41;181289;1257;44070;-81
2024/01/31 08:19:57;;;;;;;26.00;16.10;;;;;;;8.67;98.40;101748.13;181096;1257;58747;-83
2024/01/31 08:24:01;;;;;;;24.80;18.00;;;;;;;8.79;98.45;101753.38;181040;1257;43961;-82
2024/01/31 08:28:04;;;;;;;23.60;15.30;;;;;;;8.97;97.66;101758.83;181040;1257;44188;-83
2024/01/31 08:32:07;;;;;;;28.10;16.20;;;;;;;9.18;96.14;101765.21;181028;1257;43958;-83
2024/01/31 08:36:11;;;;;;;26.00;17.60;;;;;;;9.34;95.02;101762.23;181186;1257;44084;-83
2024/01/31 08:40:14;;;;;;;24.30;16.60;;;;;;;9.40;94.10;101757.31;181042;1257;57931;-82
2024/01/31 08:44:22;;;;;;;21.40;17.10;;;;;;;9.41;93.36;101758.13;181067;1257;43903;-83
2024/01/31 08:48:25;;;;;;;20.10;15.30;;;;;;;9.50;93.57;101758.95;181149;1257;44047;-83
2024/01/31 08:52:29;;;;;;;22.80;14.90;;;;;;;9.59;93.30;101763.21;181104;1257;44088;-82
2024/01/31 08:56:33;;;;;;;21.80;15.50;;;;;;;9.67;91.97;101766.37;181152;1257;44190;-83
2024/01/31 09:00:36;;;;;;;17.30;13.50;;;;;;;9.67;91.22;101765.11;181023;1256;58242;-83
2024/01/31 09:04:40;;;;;;;18.70;13.60;;;;;;;9.60;90.43;101772.04;181227;1257;44080;-83
2024/01/31 09:08:43;;;;;;;20.00;14.80;;;;;;;9.55;91.80;101777.80;181168;1257;44172;-83
2024/01/31 09:12:46;;;;;;;20.40;13.70;;;;;;;9.50;92.00;101775.76;181194;1257;44121;-83
2024/01/31 09:16:49;;;;;;;26.40;14.90;;;;;;;9.28;92.36;101783.45;181102;1257;43814;-83
2024/01/31 09:20:53;;;;;;;20.60;15.00;;;;;;;9.04;91.85;101777.29;181053;1257;58593;-83
2024/01/31 09:24:56;;;;;;;21.70;15.80;;;;;;;8.92;92.65;101784.94;181177;1257;43835;-82
2024/01/31 09:28:59;;;;;;;20.60;13.00;;;;;;;8.86;93.37;101784.70;181068;1257;44219;-82
2024/01/31 09:33:02;;;;;;;20.20;15.40;;;;;;;8.78;93.17;101791.33;181169;1257;44138;-83
2024/01/31 09:37:06;;;;;;;19.50;14.10;;;;;;;8.79;93.20;101788.62;181097;1257;44029;-83
2024/01/31 09:41:09;;;;;;;20.60;14.30;;;;;;;8.69;93.24;101793.69;181081;1257;57663;-82
2024/01/31 09:45:14;;;;;;;15.50;12.30;;;;;;;8.68;93.38;101791.94;181030;1257;44185;-82
2024/01/31 09:49:18;;;;;;;24.20;14.40;;;;;;;8.67;94.19;101793.07;181061;1257;43917;-83
2024/01/31 09:53:22;;;;;;;21.10;13.90;;;;;;;8.58;94.61;101792.63;181113;1257;44159;-83
2024/01/31 09:57:27;;;;;;;23.50;14.90;;;;;;;8.60;95.09;101789.34;180987;1257;44398;-83
2024/01/31 10:01:31;;;;;;;22.00;14.20;;;;;;;8.62;95.19;101785.89;181143;1257;57177;-83
2024/01/31 10:05:35;;;;;;;21.70;15.30;;;;;;;8.69;94.75;101779.33;181212;1257;44021;-82
2024/01/31 10:09:39;;;;;;;16.80;13.00;;;;;;;8.77;94.53;101771.56;181022;1258;43834;-82
2024/01/31 10:13:43;;;;;;;19.30;12.20;;;;;;;8.82;93.94;101766.16;181028;1257;44057;-83
2024/01/31 10:17:50;;;;;;;18.00;12.00;;;;;;;8.86;93.72;101765.41;181197;1257;44150;-81
2024/01/31 10:21:55;;;;;;;16.20;10.40;;;;;;;8.89;93.25;101759.61;181070;1257;58265;-83
2024/01/31 10:25:58;;;;;;;11.60;10.00;;;;;;;8.90;93.25;101751.76;181090;1257;44391;-83
2024/01/31 10:30:05;;;;;;;15.90;11.30;;;;;;;8.96;94.03;101753.23;181058;1257;44191;-83
2024/01/31 10:34:08;;;;;;;19.30;12.90;;;;;;;9.03;94.17;101749.19;181029;1257;44637;-83
2024/01/31 10:38:13;;;;;;;23.00;13.30;;;;;;;9.13;93.83;101746.19;181052;1258;44217;-83
2024/01/31 10:42:18;;;;;;;18.40;12.90;;;;;;;9.21;93.26;101748.04;181114;1257;59592;-83
2024/01/31 10:46:21;;;;;;;21.40;13.20;;;;;;;9.28;93.63;101745.91;181160;1257;44047;-83
2024/01/31 10:50:24;;;;;;;18.70;12.40;;;;;;;9.23;93.00;101741.25;181189;1257;44085;-83
2024/01/31 10:54:32;;;;;;;12.70;10.70;;;;;;;9.25;92.38;101739.17;181121;1257;43769;-82
2024/01/31 10:58:36;;;;;;;16.20;8.20;;;;;;;9.22;92.80;101732.79;181092;1257;43881;-83
2024/01/31 11:02:39;;;;;;;14.00;10.00;;;;;;;9.26;93.60;101727.95;181305;1257;58199;-82
2024/01/31 11:06:42;;;;;;;15.30;9.90;;;;;;;9.39;94.19;101721.79;181136;1258;43737;-83
2024/01/31 11:10:46;;;;;;;11.40;8.40;;;;;;;9.56;92.79;101717.52;181109;1257;44165;-82
2024/01/31 11:14:54;;;;;;;13.60;9.00;;;;;;;9.63;91.56;101710.98;181074;1257;44222;-83
2024/01/31 11:18:58;;;;;;;10.10;6.40;;;;;;;9.65;91.11;101707.27;181188;1257;44024;-83
2024/01/31 11:23:03;;;;;;;9.70;6.10;;;;;;;9.50;91.35;101703.71;181032;1257;60096;-83
2024/01/31 11:27:08;;;;;;;9.30;5.40;;;;;;;9.37;91.60;101707.59;181193;1257;44241;-83
2024/01/31 11:31:11;;;;;;;8.60;6.50;;;;;;;9.20;93.29;101705.98;181420;1256;44172;-83
2024/01/31 11:35:14;;;;;;;10.50;6.10;;;;;;;9.29;93.17;101709.21;181072;1257;44326;-83
2024/01/31 11:39:17;;;;;;;7.40;5.80;;;;;;;9.29;92.68;101702.15;181211;1257;43958;-83
2024/01/31 11:43:21;;;;;;;8.10;5.70;;;;;;;9.34;92.56;101701.89;181202;1257;57938;-83
2024/01/31 11:47:24;;;;;;;10.30;6.40;;;;;;;9.25;92.83;101704.51;181187;1257;44011;-83
2024/01/31 11:51:28;;;;;;;7.50;6.50;;;;;;;9.13;93.19;101699.46;181100;1257;44164;-83
2024/01/31 11:55:33;;;;;;;11.20;5.10;;;;;;;9.16;94.35;101705.34;181079;1257;43885;-83
2024/01/31 11:59:36;;;;;;;9.60;5.20;;;;;;;9.25;94.33;101702.88;181100;1257;44263;-83
2024/01/31 12:03:43;;;;;;;;;;;;;;;9.26;94.28;101706.36;181198;1257;58057;-83
2024/01/31 12:07:56;;;;;;;7.10;4.50;;;;;;;9.25;94.48;101706.24;181227;1257;43845;-83
2024/01/31 12:12:00;;;;;;;5.00;3.80;;;;;;;9.20;94.47;101706.84;181185;1257;43896;-83
2024/01/31 12:16:03;;;;;;;6.80;5.70;;;;;;;9.00;93.03;101703.67;181230;1257;44321;-83
2024/01/31 12:20:12;;;;;;;8.50;6.00;;;;;;;8.99;94.81;101702.86;181169;1257;44233;-83
2024/01/31 12:24:15;;;;;;;8.70;5.30;;;;;;;8.93;93.88;101697.48;181121;1257;57231;-83
2024/01/31 12:28:18;;;;;;;8.20;6.70;;;;;;;8.91;94.62;101709.09;181253;1257;44001;-83
2024/01/31 12:32:21;;;;;;;9.40;5.70;;;;;;;8.88;95.25;101696.34;181075;1257;44071;-83
2024/01/31 12:36:25;;;;;;;5.70;4.20;;;;;;;8.97;94.62;101691.63;181061;1257;44018;-83
2024/01/31 12:40:28;;;;;;;9.30;6.00;;;;;;;8.95;93.25;101686.42;181217;1257;44254;-83
2024/01/31 12:44:32;;;;;;;7.30;5.90;;;;;;;8.98;93.74;101680.59;181220;1257;57557;-83
2024/01/31 12:48:35;;;;;;;8.00;6.00;;;;;;;9.08;94.25;101674.76;181268;1258;44266;-83
2024/01/31 12:52:39;;;;;;;8.10;5.60;;;;;;;9.03;94.53;101675.89;181207;1256;44105;-83
2024/01/31 12:56:42;;;;;;;7.50;5.80;;;;;;;8.93;94.91;101673.75;181112;1257;43824;-83
2024/01/31 13:00:45;;;;;;;7.90;5.70;;;;;;;8.89;95.26;101672.38;181260;1257;43755;-83
2024/01/31 13:04:48;;;;;;;6.70;5.60;;;;;;;8.93;95.00;101675.02;181178;1257;60126;-82
2024/01/31 13:08:52;;;;;;;9.20;5.30;;;;;;;9.09;95.97;101676.67;181184;1257;44067;-83
2024/01/31 13:12:56;;;;;;;8.60;5.30;;;;;;;9.23;94.20;101674.32;181262;1257;43892;-83
2024/01/31 13:16:59;;;;;;;7.20;5.70;;;;;;;9.32;93.48;101675.41;181137;1257;44097;-83
2024/01/31 13:21:05;;;;;;;12.30;8.50;;;;;;;9.33;93.32;101671.66;181064;1257;43923;-83
2024/01/31 13:25:08;;;;;;;11.50;7.40;;;;;;;9.32;92.67;101657.54;181184;1257;58198;-84
2024/01/31 13:29:11;;;;;;;9.20;7.10;;;;;;;9.22;93.28;101650.63;181273;1257;45872;-83
2024/01/31 13:33:14;;;;;;;11.90;7.00;;;;;;;9.09;92.81;101644.96;181147;1257;43965;-82
2024/01/31 13:37:18;;;;;;;11.30;5.90;;;;;;;8.99;93.60;101644.04;181158;1257;44264;-83
2024/01/31 13:41:23;;;;;;;10.60;6.40;;;;;;;8.94;94.87;101643.46;181116;1257;44048;-83
2024/01/31 13:45:27;;;;;;;8.70;7.50;;;;;;;8.95;95.66;101644.86;181023;1257;58143;-83
2024/01/31 13:49:33;;;;;;;10.30;7.00;;;;;;;8.89;95.70;101643.95;181059;1257;44214;-83
2024/01/31 13:53:36;;;;;;;12.90;6.80;;;;;;;8.80;95.13;101636.79;181138;1255;44926;-81
2024/01/31 13:57:39;;;;;;;10.20;7.60;;;;;;;8.69;95.75;101642.10;181197;1257;43959;-80
2024/01/31 14:01:42;;;;;;;11.20;8.50;;;;;;;8.52;96.78;101639.81;181137;1257;44082;-80
2024/01/31 14:05:45;;;;;;;11.40;9.20;;;;;;;8.44;97.69;101632.39;181178;1257;59883;-80
2024/01/31 14:09:51;;;;;;;9.20;6.90;;;;;;;8.34;98.14;101612.41;181100;1257;43836;-80
2024/01/31 14:13:55;;;;;;;12.10;9.80;;;;;;;8.31;99.59;101623.89;181158;1257;44160;-80
2024/01/31 14:17:58;;;;;;;12.90;7.80;;;;;;;8.13;100.00;101624.41;181166;1257;45769;-80
2024/01/31 14:22:02;;;;;;;12.40;10.50;;;;;;;8.03;100.00;101625.61;181087;1257;43831;-80
2024/01/31 14:26:22;;;;;;;14.60;10.50;;;;;;;7.99;100.00;101617.16;181122;1257;57979;-80
2024/01/31 14:30:25;;;;;;;14.90;10.30;;;;;;;7.85;100.00;101605.28;181169;1257;43873;-80
2024/01/31 14:34:29;;;;;;;13.90;9.40;;;;;;;7.72;100.00;101609.27;181066;1257;44675;-81
2024/01/31 14:38:32;;;;;;;10.50;9.40;;;;;;;7.67;100.00;101603.52;181118;1257;44048;-80
2024/01/31 14:42:35;;;;;;;11.90;6.70;;;;;;;7.56;100.00;101600.34;181229;1257;43861;-79
2024/01/31 14:46:41;;;;;;;12.90;8.20;;;;;;;7.50;100.00;101596.91;181143;1257;59980;-80
2024/01/31 14:50:44;;;;;;;11.10;9.70;;;;;;;7.44;100.00;101596.66;180991;1257;43945;-80
2024/01/31 14:54:47;;;;;;;15.30;9.90;;;;;;;7.42;100.00;101598.52;181085;1257;44273;-80
2024/01/31 14:58:50;;;;;;;13.90;9.10;;;;;;;7.45;100.00;101599.64;181096;1258;44032;-80
2024/01/31 15:02:53;;;;;;;14.30;8.70;;;;;;;7.37;100.00;101598.96;181102;1257;43929;-80
2024/01/31 15:06:57;;;;;;;13.40;9.00;;;;;;;7.31;100.00;101608.55;181188;1257;58428;-80
2024/01/31 15:11:00;;;;;;;11.50;9.00;;;;;;;7.39;100.00;101606.45;181224;1257;43865;-80
2024/01/31 15:15:04;;;;;;;15.10;9.70;;;;;;;7.33;100.00;101602.84;181155;1257;44358;-80
2024/01/31 15:19:07;;;;;;;18.70;12.80;;;;;;;7.35;100.00;101610.88;181183;1257;43827;-81
2024/01/31 15:23:11;;;;;;;18.00;13.70;;;;;;;7.38;100.00;101616.91;181167;1257;43992;-81
2024/01/31 15:27:17;;;;;;;17.30;11.20;;;;;;;7.36;100.00;101615.90;180962;1257;152565;-81
2024/01/31 15:31:21;;;;;;;18.60;13.00;;;;;;;7.33;100.00;101618.02;181139;1257;44130;-81
2024/01/31 15:35:24;;;;;;;18.70;14.80;;;;;;;7.38;100.00;101619.20;181175;1257;43868;-81
2024/01/31 15:39:27;;;;;;;17.60;13.70;;;;;;;7.44;100.00;101621.04;181083;1257;44270;-81
2024/01/31 15:43:31;;;;;;;16.80;12.30;;;;;;;7.47;100.00;101621.05;181131;1256;44072;-80
2024/01/31 15:47:34;;;;;;;21.20;12.00;;;;;;;7.46;100.00;101622.70;181169;1257;60088;-80
2024/01/31 15:51:44;;;;;;;14.40;11.20;;;;;;;7.35;100.00;101618.94;181090;1257;44167;-80
2024/01/31 15:55:48;;;;;;;17.10;12.50;;;;;;;7.35;100.00;101625.86;181274;1256;43693;-80
2024/01/31 15:59:53;;;;;;;15.70;12.30;;;;;;;7.44;100.00;101622.45;181269;1256;44063;-81
2024/01/31 16:03:57;;;;;;;14.80;11.40;;;;;;;7.53;100.00;101629.09;181036;1256;43771;-80
2024/01/31 16:08:00;;;;;;;13.20;9.30;;;;;;;7.56;100.00;101637.05;181061;1256;58426;-80
2024/01/31 16:12:04;;;;;;;15.00;9.10;;;;;;;7.57;100.00;101631.85;181085;1256;43889;-80
2024/01/31 16:16:07;;;;;;;12.10;8.50;;;;;;;7.63;100.00;101634.28;181178;1256;44096;-81
2024/01/31 16:20:12;;;;;;;9.90;8.00;;;;;;;7.66;100.00;101631.44;181167;1257;44156;-81
2024/01/31 16:24:15;;;;;;;13.40;8.90;;;;;;;7.68;100.00;101624.67;181242;1259;44026;-81
2024/01/31 16:28:18;;;;;;;15.10;9.50;;;;;;;7.69;100.00;101623.52;181258;1256;59996;-81
2024/01/31 16:32:22;;;;;;;16.30;10.30;;;;;;;7.68;100.00;101619.69;181243;1256;44197;-84
2024/01/31 16:36:25;;;;;;;13.40;10.00;;;;;;;7.70;100.00;101610.06;181177;1258;44825;-82
2024/01/31 16:40:28;;;;;;;18.70;10.30;;;;;;;7.74;100.00;101606.19;181363;1256;44221;-82
2024/01/31 16:44:32;;;;;;;13.40;10.10;;;;;;;7.79;100.00;101596.76;181160;1256;44054;-82
2024/01/31 16:48:35;;;;;;;14.90;10.10;;;;;;;7.80;100.00;101603.59;181245;1256;58191;-82
2024/01/31 16:52:38;;;;;;;13.10;11.00;;;;;;;7.78;100.00;101598.02;181176;1257;44122;-81
2024/01/31 16:56:42;;;;;;;17.40;11.60;;;;;;;7.75;100.00;101598.72;181194;1256;44135;-81
2024/01/31 17:00:45;;;;;;;10.40;9.30;;;;;;;7.76;100.00;101593.03;181162;1256;44238;-81
2024/01/31 17:04:50;;;;;;;16.40;12.20;;;;;;;7.69;100.00;101588.94;181186;1256;43752;-82
2024/01/31 17:08:53;;;;;;;19.80;10.80;;;;;;;7.61;100.00;101568.84;181236;1255;58279;-82
2024/01/31 17:12:57;;;;;;;16.50;11.40;;;;;;;7.48;100.00;101557.30;181186;1256;43750;-82
2024/01/31 17:17:00;;;;;;;12.30;10.40;;;;;;;7.39;99.33;101549.08;181286;1256;43923;-81
2024/01/31 17:21:03;;;;;;;11.10;8.00;;;;;;;7.34;97.99;101549.33;181296;1256;43816;-82
2024/01/31 17:25:07;;;;;;;14.80;10.80;;;;;;;7.34;97.02;101549.34;181266;1256;44189;-82
2024/01/31 17:29:10;;;;;;;12.10;8.60;;;;;;;7.34;96.28;101551.40;181243;1256;56930;-82
2024/01/31 17:33:13;;;;;;;14.10;10.70;;;;;;;7.33;96.23;101545.13;181116;1259;44365;-81
2024/01/31 17:37:17;;;;;;;11.70;9.60;;;;;;;7.33;95.57;101551.83;181204;1257;44091;-81
2024/01/31 17:41:20;;;;;;;16.20;10.60;;;;;;;7.31;95.19;101543.98;181338;1256;44071;-80
2024/01/31 17:45:23;;;;;;;15.20;10.40;;;;;;;7.24;94.39;101523.48;181239;1256;43855;-81
2024/01/31 17:49:26;;;;;;;13.90;9.00;;;;;;;7.11;94.35;101525.53;181187;1256;60029;-80
2024/01/31 17:53:30;;;;;;;14.30;9.20;;;;;;;7.05;95.61;101534.64;181303;1256;44132;-81
2024/01/31 17:57:33;;;;;;;10.30;9.20;;;;;;;7.06;96.26;101534.58;181293;1256;43848;-81
2024/01/31 18:01:40;;;;;;;10.90;7.80;;;;;;;7.08;95.97;101536.80;181257;1256;44055;-81
2024/01/31 18:05:43;;;;;;;10.60;8.70;;;;;;;7.06;95.95;101535.27;181203;1259;44042;-81
2024/01/31 18:09:46;;;;;;;11.60;8.70;;;;;;;6.99;95.57;101530.69;181149;1256;59843;-80
2024/01/31 18:13:52;;;;;;;12.90;9.60;;;;;;;6.84;96.00;101527.10;181261;1256;44496;-81
2024/01/31 18:17:56;;;;;;;12.00;8.60;;;;;;;6.78;97.28;101523.51;181071;1256;44664;-80
2024/01/31 18:22:00;;;;;;;12.80;8.50;;;;;;;6.78;98.25;101519.46;181225;1256;43844;-80
2024/01/31 18:26:03;;;;;;;13.00;10.50;;;;;;;6.73;98.71;101509.30;181144;1256;44024;-81